createdAt,value
2018-02-13T00:01:50.181Z,11.90
2018-02-13T00:04:18.101Z,11.97
2018-02-13T00:06:46.046Z,10.10
2018-02-13T00:09:14.042Z,35.40
2018-02-13T00:11:42.021Z,32.27
2018-02-13T00:14:09.930Z,14.00
2018-02-13T00:16:37.859Z,12.77
2018-02-13T00:19:05.838Z,18.23
2018-02-13T00:21:34.032Z,16.70
2018-02-13T00:24:02.046Z,12.17
2018-02-13T00:26:30.019Z,10.73
2018-02-13T00:28:57.930Z,9.00
2018-02-13T00:31:25.958Z,9.47
2018-02-13T00:33:53.887Z,8.80
2018-02-13T00:36:21.786Z,8.17
2018-02-13T00:38:49.753Z,12.50
2018-02-13T00:41:17.726Z,13.03
2018-02-13T00:43:45.703Z,10.10
2018-02-13T00:46:13.648Z,13.80
2018-02-13T00:48:41.662Z,14.57
2018-02-13T00:51:10.071Z,13.07
2018-02-13T00:53:38.046Z,15.10
2018-02-13T00:56:06.021Z,16.77
2018-02-13T00:58:33.994Z,15.83
2018-02-13T01:01:02.026Z,16.13
2018-02-13T01:03:30.009Z,17.37
2018-02-13T01:05:58.006Z,17.23
2018-02-13T01:08:25.953Z,18.53
2018-02-13T01:10:53.991Z,18.40
2018-02-13T01:13:21.885Z,19.10
2018-02-13T01:15:49.951Z,19.03
2018-02-13T01:18:17.866Z,21.27
2018-02-13T01:20:45.927Z,21.57
2018-02-13T01:23:13.962Z,16.43
2018-02-13T01:25:42.071Z,18.53
2018-02-13T01:28:10.026Z,17.00
2018-02-13T01:30:37.993Z,14.00
2018-02-13T01:33:05.970Z,12.23
2018-02-13T01:35:33.806Z,11.40
2018-02-13T01:38:01.771Z,12.33
2018-02-13T01:40:29.719Z,15.20
2018-02-13T01:42:57.770Z,13.10
2018-02-13T01:45:25.754Z,14.00
2018-02-13T01:47:53.766Z,16.83
2018-02-13T01:50:26.702Z,12.40
2018-02-13T01:52:55.089Z,11.00
2018-02-13T01:55:23.071Z,14.33
2018-02-13T01:57:51.030Z,14.07
2018-02-13T02:00:18.922Z,13.80
2018-02-13T02:02:46.801Z,21.23
2018-02-13T02:05:14.742Z,18.37
2018-02-13T02:07:42.694Z,18.60
2018-02-13T02:10:10.610Z,19.20
2018-02-13T02:12:38.602Z,21.77
2018-02-13T02:15:06.518Z,22.17
2018-02-13T02:17:34.503Z,20.37
2018-02-13T02:20:02.497Z,21.93
2018-02-13T02:22:30.511Z,22.07
2018-02-13T02:24:58.517Z,22.20
2018-02-13T02:27:26.705Z,22.97
2018-02-13T02:29:54.658Z,21.97
2018-02-13T02:32:22.635Z,21.50
2018-02-13T02:34:50.613Z,26.37
2018-02-13T02:37:18.593Z,26.57
2018-02-13T02:39:46.584Z,25.50
2018-02-13T02:42:14.565Z,25.07
2018-02-13T02:44:42.487Z,24.13
2018-02-13T02:47:10.457Z,22.10
2018-02-13T02:49:38.419Z,21.40
2018-02-13T02:52:06.367Z,21.20
2018-02-13T02:54:34.818Z,21.13
2018-02-13T02:57:02.832Z,21.37
2018-02-13T02:59:30.786Z,20.70
2018-02-13T03:01:58.770Z,25.10
2018-02-13T03:04:26.651Z,25.40
2018-02-13T03:06:54.599Z,20.67
2018-02-13T03:09:22.667Z,21.63
2018-02-13T03:11:50.590Z,20.27
2018-02-13T03:14:18.686Z,21.53
2018-02-13T03:16:46.735Z,19.67
2018-02-13T03:19:14.562Z,18.23
2018-02-13T03:21:42.545Z,16.20
2018-02-13T03:24:10.493Z,15.03
2018-02-13T03:26:38.454Z,13.90
2018-02-13T03:29:06.431Z,13.57
2018-02-13T03:31:34.386Z,13.10
2018-02-13T03:34:02.366Z,13.50
2018-02-13T03:36:30.293Z,15.87
2018-02-13T03:38:58.265Z,14.57
2018-02-13T03:41:26.205Z,13.37
2018-02-13T03:43:54.206Z,12.77
2018-02-13T03:46:22.221Z,12.00
2018-02-13T03:48:50.167Z,15.77
2018-02-13T03:51:18.179Z,14.07
2018-02-13T03:53:46.156Z,11.77
2018-02-13T03:56:14.447Z,12.80
2018-02-13T03:58:42.409Z,13.33
2018-02-13T04:01:10.378Z,13.70
2018-02-13T04:03:38.327Z,15.70
2018-02-13T04:06:06.299Z,13.33
2018-02-13T04:08:34.298Z,12.53
2018-02-13T04:11:02.329Z,12.43
2018-02-13T04:13:30.337Z,13.00
2018-02-13T04:15:58.354Z,13.00
2018-02-13T04:18:26.366Z,13.57
2018-02-13T04:20:54.348Z,12.40
2018-02-13T04:23:22.314Z,14.67
2018-02-13T04:25:50.290Z,15.27
2018-02-13T04:28:18.319Z,19.60
2018-02-13T04:30:46.341Z,16.37
2018-02-13T04:33:14.330Z,17.00
2018-02-13T04:35:42.310Z,22.80
2018-02-13T04:38:10.357Z,36.17
2018-02-13T04:40:38.313Z,44.40
2018-02-13T04:43:06.263Z,80.67
2018-02-13T04:45:34.302Z,111.63
2018-02-13T04:48:02.305Z,95.70
2018-02-13T04:50:31.385Z,102.87
2018-02-13T04:52:59.369Z,85.23
2018-02-13T04:55:27.353Z,63.40
2018-02-13T04:57:55.593Z,37.23
2018-02-13T05:00:23.574Z,40.30
2018-02-13T05:02:51.543Z,47.97
2018-02-13T05:05:19.476Z,66.27
2018-02-13T05:07:47.392Z,32.03
2018-02-13T05:10:15.350Z,46.93
2018-02-13T05:12:43.301Z,47.70
2018-02-13T05:15:11.291Z,46.80
2018-02-13T05:17:39.269Z,55.63
2018-02-13T05:20:07.221Z,40.43
2018-02-13T05:22:35.210Z,36.30
2018-02-13T05:25:03.198Z,33.97
2018-02-13T05:27:31.177Z,25.87
2018-02-13T05:29:59.151Z,38.20
2018-02-13T05:32:27.200Z,39.30
2018-02-13T05:34:55.173Z,25.10
2018-02-13T05:37:23.218Z,28.87
2018-02-13T05:39:51.179Z,23.37
2018-02-13T05:42:19.105Z,14.83
2018-02-13T05:44:47.138Z,90.60
2018-02-13T05:47:15.162Z,55.23
2018-02-13T05:49:43.094Z,57.63
2018-02-13T05:52:11.139Z,70.83
2018-02-13T05:54:39.255Z,100.73
2018-02-13T05:57:07.173Z,73.80
2018-02-13T05:59:35.910Z,87.70
2018-02-13T06:02:03.879Z,96.77
2018-02-13T06:04:31.823Z,91.90
2018-02-13T06:06:59.819Z,45.27
2018-02-13T06:09:27.821Z,48.63
2018-02-13T06:11:55.750Z,35.20
2018-02-13T06:14:23.728Z,41.87
2018-02-13T06:16:51.759Z,31.97
2018-02-13T06:19:19.679Z,25.70
2018-02-13T06:21:47.646Z,20.53
2018-02-13T06:24:15.609Z,129.80
2018-02-13T06:26:43.559Z,98.97
2018-02-13T06:29:11.736Z,81.83
2018-02-13T06:31:40.031Z,51.47
2018-02-13T06:34:08.510Z,17.80
2018-02-13T06:36:36.989Z,25.03
2018-02-13T06:39:05.964Z,18.60
2018-02-13T06:41:34.262Z,24.60
2018-02-13T06:44:02.163Z,19.57
2018-02-13T06:46:30.810Z,21.80
2018-02-13T06:48:58.690Z,20.37
2018-02-13T06:51:26.615Z,21.10
2018-02-13T06:53:54.664Z,29.33
2018-02-13T06:56:22.657Z,31.40
2018-02-13T06:58:50.639Z,29.73
2018-02-13T07:01:19.134Z,24.17
2018-02-13T07:03:47.131Z,23.80
2018-02-13T07:06:15.047Z,19.10
2018-02-13T07:08:42.987Z,20.60
2018-02-13T07:11:10.957Z,12.30
2018-02-13T07:13:38.906Z,11.53
2018-02-13T07:16:06.886Z,13.00
2018-02-13T07:18:34.843Z,11.77
2018-02-13T07:21:02.826Z,15.03
2018-02-13T07:23:30.838Z,17.77
2018-02-13T07:25:58.794Z,13.53
2018-02-13T07:28:26.898Z,12.83
2018-02-13T07:30:54.766Z,14.30
2018-02-13T07:33:22.742Z,18.17
2018-02-13T07:35:50.845Z,27.00
2018-02-13T07:38:18.847Z,16.50
2018-02-13T07:40:46.764Z,22.20
2018-02-13T07:43:14.751Z,15.10
2018-02-13T07:45:42.669Z,17.30
2018-02-13T07:48:10.666Z,21.37
2018-02-13T07:50:38.646Z,15.30
2018-02-13T07:53:06.651Z,18.00
2018-02-13T07:55:34.610Z,21.63
2018-02-13T07:58:02.561Z,15.53
2018-02-13T08:00:30.602Z,15.30
2018-02-13T08:02:58.867Z,18.47
2018-02-13T08:05:26.842Z,17.43
2018-02-13T08:07:54.820Z,19.60
2018-02-13T08:10:22.925Z,20.40
2018-02-13T08:12:50.965Z,17.17
2018-02-13T08:15:19.318Z,23.67
2018-02-13T08:17:47.259Z,15.53
2018-02-13T08:20:15.205Z,29.13
2018-02-13T08:22:43.169Z,15.20
2018-02-13T08:25:11.126Z,29.73
2018-02-13T08:27:39.077Z,11.27
2018-02-13T08:30:07.082Z,37.60
2018-02-13T08:32:35.053Z,16.30
2018-02-13T08:35:02.985Z,14.00
2018-02-13T08:37:31.112Z,12.30
2018-02-13T08:39:59.095Z,21.60
2018-02-13T08:42:27.078Z,19.03
2018-02-13T08:44:55.113Z,15.70
2018-02-13T08:47:23.071Z,19.67
2018-02-13T08:49:51.150Z,11.80
2018-02-13T08:52:19.130Z,19.90
2018-02-13T08:54:47.137Z,16.00
2018-02-13T08:57:15.117Z,14.83
2018-02-13T08:59:43.156Z,11.00
2018-02-13T09:02:11.181Z,11.40
2018-02-13T09:04:39.426Z,46.07
2018-02-13T09:07:07.457Z,20.77
2018-02-13T09:09:35.541Z,17.07
2018-02-13T09:12:03.533Z,17.60
2018-02-13T09:14:31.543Z,17.70
2018-02-13T09:16:59.511Z,16.13
2018-02-13T09:19:27.522Z,11.37
2018-02-13T09:21:55.504Z,13.30
2018-02-13T09:24:23.417Z,17.33
2018-02-13T09:26:51.407Z,12.57
2018-02-13T09:29:19.422Z,7.60
2018-02-13T09:31:47.409Z,27.27
2018-02-13T09:34:15.398Z,9.33
2018-02-13T09:36:43.389Z,18.73
2018-02-13T09:39:11.655Z,24.43
2018-02-13T09:41:39.654Z,8.70
2018-02-13T09:44:07.614Z,8.50
2018-02-13T09:46:35.629Z,10.80
2018-02-13T09:49:03.666Z,6.90
2018-02-13T09:51:31.656Z,15.33
2018-02-13T09:53:59.607Z,16.37
2018-02-13T09:56:27.626Z,23.37
2018-02-13T09:58:55.654Z,14.07
2018-02-13T10:01:23.615Z,8.73
2018-02-13T10:03:51.693Z,22.90
2018-02-13T10:06:20.050Z,68.70
2018-02-13T10:08:48.078Z,11.50
2018-02-13T10:11:16.089Z,19.37
2018-02-13T10:13:44.057Z,30.70
2018-02-13T10:16:12.132Z,9.20
2018-02-13T10:18:40.139Z,10.07
2018-02-13T10:21:08.227Z,8.13
2018-02-13T10:23:36.256Z,15.40
2018-02-13T10:26:04.234Z,9.10
2018-02-13T10:28:32.253Z,10.30
2018-02-13T10:31:00.279Z,10.83
2018-02-13T10:33:28.348Z,33.77
2018-02-13T10:35:56.278Z,8.20
2018-02-13T10:38:24.270Z,10.10
2018-02-13T10:40:52.300Z,11.10
2018-02-13T10:43:20.254Z,11.37
2018-02-13T10:45:48.219Z,33.23
2018-02-13T10:48:16.121Z,10.80
2018-02-13T10:50:44.098Z,9.07
2018-02-13T10:53:12.093Z,10.20
2018-02-13T10:55:40.063Z,18.50
2018-02-13T10:58:08.042Z,10.60
2018-02-13T11:00:41.583Z,20.23
2018-02-13T11:03:09.584Z,20.93
2018-02-13T11:05:37.594Z,13.77
2018-02-13T11:08:05.914Z,10.70
2018-02-13T11:10:33.946Z,13.47
2018-02-13T11:13:01.956Z,23.57
2018-02-13T11:15:30.035Z,11.87
2018-02-13T11:17:58.074Z,14.13
2018-02-13T11:20:26.114Z,14.93
2018-02-13T11:22:54.094Z,15.63
2018-02-13T11:25:22.082Z,18.77
2018-02-13T11:27:50.069Z,20.80
2018-02-13T11:30:18.043Z,10.30
2018-02-13T11:32:46.044Z,13.40
2018-02-13T11:35:13.962Z,13.53
2018-02-13T11:37:41.974Z,20.50
2018-02-13T11:40:09.922Z,17.10
2018-02-13T11:42:38.061Z,11.63
2018-02-13T11:45:06.051Z,11.13
2018-02-13T11:47:34.037Z,13.87
2018-02-13T11:50:01.999Z,20.83
2018-02-13T11:52:29.999Z,8.57
2018-02-13T11:54:57.980Z,9.40
2018-02-13T11:57:25.907Z,8.33
2018-02-13T11:59:53.899Z,11.13
2018-02-13T12:02:21.903Z,10.93
2018-02-13T12:04:49.927Z,13.30
2018-02-13T12:07:17.967Z,25.67
2018-02-13T12:09:46.148Z,9.17
2018-02-13T12:12:14.238Z,11.40
2018-02-13T12:14:42.222Z,8.70
2018-02-13T12:17:10.221Z,34.73
2018-02-13T12:19:38.144Z,24.10
2018-02-13T12:22:06.125Z,76.10
2018-02-13T12:24:34.177Z,32.00
2018-02-13T12:27:02.041Z,26.97
2018-02-13T12:29:30.025Z,7.53
2018-02-13T12:31:58.138Z,30.80
2018-02-13T12:34:26.175Z,11.40
2018-02-13T12:36:54.181Z,20.10
2018-02-13T12:39:22.162Z,39.77
2018-02-13T12:41:50.190Z,37.40
2018-02-13T12:44:18.538Z,25.27
2018-02-13T12:46:46.513Z,12.13
2018-02-13T12:49:14.600Z,12.57
2018-02-13T12:51:42.574Z,10.37
2018-02-13T12:54:10.599Z,13.00
2018-02-13T12:56:38.609Z,17.53
2018-02-13T12:59:06.697Z,16.27
2018-02-13T13:01:34.654Z,23.80
2018-02-13T13:04:03.635Z,60.13
2018-02-13T13:06:31.659Z,47.87
2018-02-13T13:08:59.709Z,42.03
2018-02-13T13:11:28.125Z,26.37
2018-02-13T13:13:56.115Z,28.60
2018-02-13T13:16:24.068Z,25.00
2018-02-13T13:18:51.958Z,16.67
2018-02-13T13:21:19.955Z,28.60
2018-02-13T13:23:47.983Z,24.20
2018-02-13T13:26:15.984Z,28.37
2018-02-13T13:28:43.995Z,25.60
2018-02-13T13:31:12.010Z,34.00
2018-02-13T13:33:40.003Z,29.10
2018-02-13T13:36:08.012Z,25.80
2018-02-13T13:38:35.996Z,27.53
2018-02-13T13:41:03.991Z,27.27
2018-02-13T13:43:31.994Z,31.27
2018-02-13T13:46:00.265Z,54.17
2018-02-13T13:48:28.687Z,16.30
2018-02-13T13:50:56.609Z,15.07
2018-02-13T13:53:24.604Z,15.57
2018-02-13T13:55:52.602Z,13.50
2018-02-13T13:58:20.575Z,18.10
2018-02-13T14:00:48.534Z,16.07
2018-02-13T14:03:16.551Z,15.40
2018-02-13T14:05:44.542Z,15.87
2018-02-13T14:08:12.512Z,18.33
2018-02-13T14:10:40.477Z,18.50
2018-02-13T14:13:08.670Z,19.83
2018-02-13T14:15:36.654Z,17.00
2018-02-13T14:18:04.657Z,15.93
2018-02-13T14:20:32.638Z,13.93
2018-02-13T14:23:00.641Z,11.47
2018-02-13T14:25:28.608Z,13.27
2018-02-13T14:27:56.593Z,17.83
2018-02-13T14:30:24.588Z,11.00
2018-02-13T14:32:52.617Z,14.80
2018-02-13T14:35:20.605Z,13.00
2018-02-13T14:37:48.626Z,13.47
2018-02-13T14:40:16.610Z,14.90
2018-02-13T14:42:44.670Z,16.60
2018-02-13T14:45:12.663Z,31.63
2018-02-13T14:47:40.613Z,45.40
2018-02-13T14:50:08.570Z,14.07
2018-02-13T14:52:36.506Z,19.67
2018-02-13T14:55:04.449Z,29.07
2018-02-13T14:57:32.429Z,35.40
2018-02-13T15:00:00.480Z,19.87
2018-02-13T15:02:28.466Z,85.87
2018-02-13T15:04:56.450Z,27.17
2018-02-13T15:07:24.445Z,22.33
2018-02-13T15:09:52.426Z,87.00
2018-02-13T15:12:20.499Z,22.00
2018-02-13T15:14:48.897Z,17.87
2018-02-13T15:17:22.051Z,21.80
2018-02-13T15:19:52.067Z,16.10
2018-02-13T15:22:20.007Z,20.60
2018-02-13T15:24:48.016Z,23.50
2018-02-13T15:27:16.029Z,19.80
2018-02-13T15:29:44.165Z,13.87
2018-02-13T15:32:12.194Z,17.70
2018-02-13T15:34:40.151Z,16.70
2018-02-13T15:37:08.110Z,25.90
2018-02-13T15:39:36.255Z,19.70
2018-02-13T15:42:04.194Z,20.50
2018-02-13T15:44:32.173Z,19.47
2018-02-13T15:47:05.065Z,17.60
2018-02-13T15:49:33.462Z,23.90
2018-02-13T15:52:01.821Z,19.60
2018-02-13T15:54:29.794Z,22.40
2018-02-13T15:56:57.861Z,22.60
2018-02-13T15:59:25.771Z,27.57
2018-02-13T16:01:53.768Z,28.00
2018-02-13T16:04:21.754Z,44.07
2018-02-13T16:06:49.706Z,21.10
2018-02-13T16:09:17.705Z,18.50
2018-02-13T16:11:45.690Z,22.50
2018-02-13T16:14:13.677Z,18.20
2018-02-13T16:16:41.936Z,14.60
2018-02-13T16:19:09.803Z,12.17
2018-02-13T16:21:37.754Z,18.03
2018-02-13T16:24:05.738Z,24.50
2018-02-13T16:26:33.734Z,16.03
2018-02-13T16:29:01.826Z,16.90
2018-02-13T16:31:29.710Z,15.53
2018-02-13T16:33:57.962Z,14.20
2018-02-13T16:36:25.910Z,16.97
2018-02-13T16:38:53.937Z,12.37
2018-02-13T16:41:21.870Z,10.30
2018-02-13T16:43:49.856Z,12.53
2018-02-13T16:46:17.883Z,24.80
2018-02-13T16:48:45.883Z,17.40
2018-02-13T16:51:13.815Z,27.10
2018-02-13T16:53:41.801Z,8.40
2018-02-13T16:56:09.818Z,29.60
2018-02-13T16:58:37.819Z,14.27
2018-02-13T17:01:05.832Z,20.93
2018-02-13T17:03:33.774Z,27.83
2018-02-13T17:06:01.770Z,21.80
2018-02-13T17:08:29.750Z,11.80
2018-02-13T17:10:57.781Z,21.30
2018-02-13T17:13:25.720Z,17.17
2018-02-13T17:15:53.765Z,19.67
2018-02-13T17:18:22.233Z,16.17
2018-02-13T17:20:50.187Z,24.90
2018-02-13T17:23:18.263Z,12.53
2018-02-13T17:25:46.247Z,13.40
2018-02-13T17:28:15.266Z,9.20
2018-02-13T17:30:43.202Z,7.70
2018-02-13T17:33:11.162Z,13.80
2018-02-13T17:35:39.166Z,12.77
2018-02-13T17:38:07.203Z,15.57
2018-02-13T17:40:35.195Z,13.07
2018-02-13T17:43:03.847Z,20.00
2018-02-13T17:45:31.759Z,14.80
2018-02-13T17:48:00.160Z,16.40
2018-02-13T17:50:28.092Z,11.70
2018-02-13T17:52:56.058Z,14.87
2018-02-13T17:55:24.003Z,10.80
2018-02-13T17:57:51.974Z,11.80
2018-02-13T18:00:19.921Z,13.37
2018-02-13T18:02:47.937Z,13.77
2018-02-13T18:05:15.953Z,15.73
2018-02-13T18:07:43.958Z,15.60
2018-02-13T18:10:11.962Z,19.80
2018-02-13T18:12:40.014Z,6.13
2018-02-13T18:15:07.998Z,11.23
2018-02-13T18:17:35.988Z,6.93
2018-02-13T18:20:04.376Z,7.17
2018-02-13T18:22:32.302Z,21.70
2018-02-13T18:25:00.338Z,48.87
2018-02-13T18:27:28.323Z,26.47
2018-02-13T18:29:56.338Z,25.10
2018-02-13T18:32:24.411Z,28.17
2018-02-13T18:34:52.401Z,10.90
2018-02-13T18:37:20.517Z,9.80
2018-02-13T18:39:48.542Z,9.70
2018-02-13T18:42:16.445Z,7.10
2018-02-13T18:44:44.425Z,12.63
2018-02-13T18:47:12.398Z,28.40
2018-02-13T18:49:40.359Z,28.90
2018-02-13T18:54:36.141Z,16.97
2018-02-13T18:57:04.137Z,23.20
2018-02-13T18:59:32.094Z,39.77
2018-02-13T19:02:00.113Z,24.70
2018-02-13T19:04:28.145Z,14.30
2018-02-13T19:06:56.102Z,29.43
2018-02-13T19:09:24.016Z,25.03
2018-02-13T19:11:51.982Z,21.83
2018-02-13T19:14:20.021Z,15.47
2018-02-13T19:19:15.943Z,21.60
2018-02-13T19:21:44.895Z,35.10
2018-02-13T19:24:12.909Z,31.43
2018-02-13T19:26:40.907Z,10.63
2018-02-13T19:29:08.832Z,7.43
2018-02-13T19:31:36.787Z,6.17
2018-02-13T19:34:04.694Z,7.13
2018-02-13T19:36:32.706Z,9.40
2018-02-13T19:39:00.662Z,10.67
2018-02-13T19:41:28.667Z,14.50
2018-02-13T19:43:56.682Z,12.40
2018-02-13T19:46:24.703Z,14.77
2018-02-13T19:48:52.723Z,11.00
2018-02-13T19:51:20.690Z,12.90
2018-02-13T19:53:48.719Z,13.77
2018-02-13T19:56:16.679Z,16.73
2018-02-13T19:58:44.715Z,13.00
2018-02-13T20:01:12.707Z,13.77
2018-02-13T20:03:40.709Z,9.20
2018-02-13T20:06:08.662Z,8.93
2018-02-13T20:08:36.602Z,8.17
2018-02-13T20:11:04.506Z,12.10
2018-02-13T20:13:32.426Z,12.90
2018-02-13T20:16:00.510Z,12.80
2018-02-13T20:18:28.470Z,10.30
2018-02-13T20:20:56.446Z,11.50
2018-02-13T20:23:24.839Z,12.57
2018-02-13T20:25:52.842Z,10.97
2018-02-13T20:28:20.729Z,24.90
2018-02-13T20:30:48.708Z,16.63
2018-02-13T20:33:16.699Z,12.07
2018-02-13T20:35:44.682Z,20.80
2018-02-13T20:38:12.676Z,21.03
2018-02-13T20:40:41.412Z,16.73
2018-02-13T20:43:09.395Z,11.53
2018-02-13T20:45:37.282Z,7.57
2018-02-13T20:48:05.209Z,7.73
2018-02-13T20:50:33.242Z,9.03
2018-02-13T20:53:01.215Z,8.70
2018-02-13T20:55:29.230Z,7.53
2018-02-13T20:57:58.354Z,4.77
2018-02-13T21:00:27.142Z,4.60
2018-02-13T21:02:55.152Z,8.60
2018-02-13T21:05:23.149Z,5.00
2018-02-13T21:07:51.110Z,6.23
2018-02-13T21:10:19.122Z,12.20
2018-02-13T21:12:47.146Z,35.13
2018-02-13T21:15:15.158Z,16.80
2018-02-13T21:17:43.166Z,13.93
2018-02-13T21:20:11.118Z,12.23
2018-02-13T21:22:39.188Z,13.20
2018-02-13T21:25:07.522Z,13.13
2018-02-13T21:27:35.537Z,11.40
2018-02-13T21:30:03.550Z,8.53
2018-02-13T21:32:31.565Z,12.67
2018-02-13T21:34:59.530Z,16.33
2018-02-13T21:37:27.469Z,16.90
2018-02-13T21:39:55.446Z,14.90
2018-02-13T21:42:23.427Z,16.00
2018-02-13T21:44:51.339Z,12.20
2018-02-13T21:47:19.323Z,13.17
2018-02-13T21:49:47.433Z,11.20
2018-02-13T21:52:15.414Z,7.93
2018-02-13T21:54:43.414Z,9.63
2018-02-13T21:57:11.834Z,16.40
2018-02-13T21:59:40.197Z,17.40
2018-02-13T22:02:08.486Z,12.87
2018-02-13T22:04:37.163Z,11.83
2018-02-13T22:07:05.640Z,17.73
2018-02-13T22:09:33.953Z,17.53
2018-02-13T22:12:02.395Z,15.17
2018-02-13T22:14:30.588Z,12.37
2018-02-13T22:16:59.048Z,15.67
2018-02-13T22:19:27.635Z,12.00
2018-02-13T22:21:56.010Z,8.47
2018-02-13T22:24:24.495Z,14.87
2018-02-13T22:26:53.018Z,19.80
2018-02-13T22:29:21.346Z,9.37
2018-02-13T22:31:49.930Z,9.60
2018-02-13T22:34:18.189Z,9.53
2018-02-13T22:36:46.994Z,10.83
2018-02-13T22:39:15.457Z,11.33
2018-02-13T22:41:43.860Z,12.10
2018-02-13T22:44:12.131Z,12.77
2018-02-13T22:46:40.589Z,15.87
2018-02-13T22:49:09.304Z,14.60
2018-02-13T22:51:37.677Z,15.70
2018-02-13T22:54:06.050Z,13.67
2018-02-13T22:56:34.539Z,18.30
2018-02-13T22:59:03.218Z,15.13
2018-02-13T23:01:31.884Z,17.77
2018-02-13T23:04:00.282Z,17.80
2018-02-13T23:06:29.072Z,19.90
2018-02-13T23:08:57.651Z,19.40
2018-02-13T23:11:26.037Z,21.40
2018-02-13T23:13:54.609Z,20.73
2018-02-13T23:16:23.077Z,17.60
2018-02-13T23:18:51.465Z,20.60
2018-02-13T23:21:20.050Z,18.80
2018-02-13T23:23:48.434Z,20.47
2018-02-13T23:26:16.705Z,19.00
2018-02-13T23:28:45.389Z,15.17
2018-02-13T23:31:13.765Z,14.07
2018-02-13T23:33:42.248Z,14.70
2018-02-13T23:36:10.530Z,14.10
2018-02-13T23:38:38.901Z,12.10
2018-02-13T23:41:07.177Z,11.23
2018-02-13T23:43:35.689Z,8.67
2018-02-13T23:46:04.141Z,8.00
2018-02-13T23:48:32.618Z,8.90
2018-02-13T23:51:00.999Z,9.50
2018-02-13T23:53:29.476Z,6.50
2018-02-13T23:55:57.758Z,8.13
2018-02-13T23:58:26.423Z,7.70
